57.3°F
Current conditions from King Hill
Updated every 5 minutes
 
  Thursday July 31, 2014

Station Historical Data
Daily Summary for May 8, 2012 Units:  Metric    English   Both
« Previous Day
Next Day »
Daily Weekly Monthly Yearly Custom
  High: Low: Average:
Temperature: 15.6 °C 9.7 °C 11.9 °C
Dew Point: 11.8 °C 3.9 °C 9.6 °C
Humidity: 96% 49% 86%
Wind Speed: 20.9km/h 1.6km/h 7.6km/h
Wind Gust: 46.7km/h - -
Wind- - SSW
Pressure: 1012.8 hPa 1006.3 hPa -
Precipitation: 35.6 mm    
Historical Graphs
 
 
Tabular Data for May 8, 2012
Time Temperature Dew Point Pressure Wind Wind Speed Wind Gust Humidity Daily Rainfall
00:00 14.4 °C 3.9 °C 1012.8 hPa SSW 4.8 km/h 14.5 km/h 49% 0 mm
00:10 14.9 °C 4.6 °C 1012.4 hPa SSW 1.6 km/h 12.9 km/h 50% 0 mm
00:15 14.9 °C 4.9 °C 1012.4 hPa South 1.6 km/h 12.9 km/h 51% 0 mm
00:20 15 °C 5.2 °C 1012.4 hPa SSW 3.2 km/h 12.9 km/h 52% 0 mm
00:25 14.9 °C 6.2 °C 1012.4 hPa SW 4.8 km/h 12.9 km/h 56% 0 mm
00:30 15 °C 6.8 °C 1012.4 hPa SSW 3.2 km/h 12.9 km/h 58% 0 mm
00:35 15.2 °C 7.7 °C 1012.4 hPa SSW 9.7 km/h 22.5 km/h 61% 0 mm
00:40 15.4 °C 8.2 °C 1012.4 hPa SSW 11.3 km/h 27.4 km/h 62% 0 mm
00:45 15.6 °C 8.3 °C 1012.4 hPa SSW 6.4 km/h 27.4 km/h 62% 0 mm
00:50 15.6 °C 8.3 °C 1012.4 hPa SW 8 km/h 20.9 km/h 62% 0 mm
00:55 15.6 °C 8.3 °C 1012.4 hPa SSW 6.4 km/h 27.4 km/h 62% 0 mm
01:00 15.6 °C 8.3 °C 1012.4 hPa SSW 9.7 km/h 27.4 km/h 62% 0 mm
01:05 15.6 °C 8.3 °C 1012.4 hPa SW 4.8 km/h 20.9 km/h 62% 0 mm
01:10 15.6 °C 8.3 °C 1012.4 hPa SW 11.3 km/h 22.5 km/h 62% 0 mm
01:15 15.6 °C 8.3 °C 1012.4 hPa SSW 4.8 km/h 22.5 km/h 62% 0 mm
01:20 15.6 °C 8.3 °C 1012.4 hPa South 6.4 km/h 19.3 km/h 62% 0 mm
01:25 15.5 °C 8.3 °C 1012.1 hPa SSW 8 km/h 19.3 km/h 62% 0 mm
01:30 15.4 °C 8.4 °C 1012.1 hPa SSW 11.3 km/h 22.5 km/h 63% 0 mm
01:35 15.4 °C 8.7 °C 1012.1 hPa SW 8 km/h 22.5 km/h 64% 0 mm
01:40 15.4 °C 8.7 °C 1012.1 hPa SSW 6.4 km/h 24.1 km/h 64% 0 mm
01:45 15.4 °C 8.8 °C 1012.1 hPa SSW 9.7 km/h 30.6 km/h 65% 0 mm
01:50 15.4 °C 9.1 °C 1012.1 hPa SSW 12.9 km/h 35.4 km/h 66% 0 mm
01:55 15.4 °C 9.1 °C 1012.1 hPa SSW 11.3 km/h 35.4 km/h 66% 0 mm
02:00 15.3 °C 9 °C 1011.7 hPa South 9.7 km/h 29 km/h 66% 0 mm
02:05 15.3 °C 9.2 °C 1011.7 hPa SW 9.7 km/h 25.7 km/h 67% 0 mm
02:10 15.2 °C 9.1 °C 1011.7 hPa SW 12.9 km/h 30.6 km/h 67% 0 mm
02:15 15.2 °C 9.3 °C 1011.7 hPa SW 14.5 km/h 30.6 km/h 68% 0 mm
02:20 15 °C 9.2 °C 1011.7 hPa SSW 9.7 km/h 30.6 km/h 68% 0 mm
02:25 15 °C 9.2 °C 1011.7 hPa SSW 8 km/h 30.6 km/h 68% 0 mm
02:35 15 °C 9.4 °C 1011.4 hPa SSW 8 km/h 35.4 km/h 69% 0 mm
02:45 15 °C 9.4 °C 1011.4 hPa SSW 6.4 km/h 29 km/h 69% 0 mm
02:50 14.8 °C 9.4 °C 1011.4 hPa South 3.2 km/h 20.9 km/h 70% 0 mm
02:55 14.7 °C 9.4 °C 1011.1 hPa South 4.8 km/h 20.9 km/h 71% 0 mm
03:00 14.6 °C 9.6 °C 1011.1 hPa SSW 3.2 km/h 20.9 km/h 72% 0 mm
03:05 14.5 °C 9.5 °C 1011.1 hPa SSW 4.8 km/h 22.5 km/h 72% 0 mm
03:10 14.4 °C 9.4 °C 1011.1 hPa SSW 3.2 km/h 22.5 km/h 72% 0 mm
03:20 14.2 °C 9.4 °C 1010.7 hPa SW 1.6 km/h 17.7 km/h 73% 0 mm
03:25 14.2 °C 9.6 °C 1010.7 hPa SSW 1.6 km/h 16.1 km/h 74% 0 mm
03:30 14.1 °C 9.7 °C 1010.7 hPa SSW 3.2 km/h 20.9 km/h 75% 0 mm
03:40 13.8 °C 9.7 °C 1010.7 hPa South 1.6 km/h 14.5 km/h 76% 0 mm
03:45 13.7 °C 9.9 °C 1010.7 hPa SSW 3.2 km/h 16.1 km/h 78% 0 mm
03:50 13.6 °C 9.8 °C 1010.7 hPa SSW 4.8 km/h 16.1 km/h 78% 0 mm
03:55 13.4 °C 9.8 °C 1010.4 hPa SSW 4.8 km/h 12.9 km/h 79% 0 mm
04:00 13.3 °C 9.9 °C 1010.4 hPa SW 3.2 km/h 17.7 km/h 80% 0 mm
04:05 13.2 °C 10 °C 1010.4 hPa SSW 4.8 km/h 17.7 km/h 81% 0 mm
04:10 13.1 °C 9.9 °C 1010.4 hPa SW 1.6 km/h 16.1 km/h 81% 0 mm
04:15 13 °C 10 °C 1010 hPa SW 4.8 km/h 16.1 km/h 82% 0 mm
04:20 12.9 °C 9.9 °C 1010 hPa SW 4.8 km/h 16.1 km/h 82% 0 mm
04:25 12.8 °C 10 °C 1010 hPa SW 3.2 km/h 16.1 km/h 83% 0 mm
04:30 12.8 °C 10.2 °C 1010 hPa SW 3.2 km/h 17.7 km/h 84% 0 mm
04:35 12.7 °C 10.1 °C 1010.4 hPa SW 6.4 km/h 22.5 km/h 84% 0 mm
04:40 12.7 °C 10.1 °C 1010.4 hPa SW 8 km/h 22.5 km/h 84% 0.3 mm
04:45 12.6 °C 10.2 °C 1010.4 hPa SW 9.7 km/h 24.1 km/h 85% 0.3 mm
04:50 12.5 °C 10.1 °C 1010 hPa SW 3.2 km/h 24.1 km/h 85% 0.3 mm
05:00 12.3 °C 10.2 °C 1010.4 hPa SSW 8 km/h 24.1 km/h 87% 0.5 mm
05:05 12.3 °C 10.2 °C 1010 hPa SW 9.7 km/h 24.1 km/h 87% 0.5 mm
05:10 12.2 °C 10.1 °C 1010.4 hPa SW 16.1 km/h 29 km/h 87% 0.5 mm
05:15 12.2 °C 10.1 °C 1010.4 hPa SSW 12.9 km/h 29 km/h 87% 0.5 mm
05:20 12.1 °C 10 °C 1010 hPa SSW 11.3 km/h 27.4 km/h 87% 0.8 mm
05:25 12.1 °C 9.9 °C 1010 hPa SSW 12.9 km/h 25.7 km/h 87% 0.8 mm
05:35 12 °C 9.9 °C 1010 hPa SSW 16.1 km/h 40.2 km/h 87% 0.8 mm
05:45 11.9 °C 9.8 °C 1010 hPa SW 8 km/h 27.4 km/h 87% 0.8 mm
05:50 11.9 °C 9.7 °C 1010 hPa SSW 12.9 km/h 29 km/h 86% 0.8 mm
06:00 11.9 °C 9.6 °C 1010 hPa SSW 4.8 km/h 22.5 km/h 86% 1 mm
06:05 11.9 °C 9.6 °C 1010 hPa SSW 9.7 km/h 30.6 km/h 86% 1 mm
06:10 11.8 °C 9.4 °C 1009.7 hPa SSW 12.9 km/h 43.5 km/h 85% 1 mm
06:15 11.8 °C 9.4 °C 1009.7 hPa South 17.7 km/h 43.5 km/h 85% 1 mm
06:20 11.8 °C 9.2 °C 1009.7 hPa SSW 9.7 km/h 40.2 km/h 84% 1 mm
06:25 11.8 °C 9.2 °C 1009.4 hPa SSW 11.3 km/h 32.2 km/h 84% 1 mm
06:30 11.8 °C 9 °C 1009.4 hPa SSW 12.9 km/h 35.4 km/h 83% 1 mm
06:35 11.8 °C 9 °C 1009.7 hPa SSW 14.5 km/h 35.4 km/h 83% 1 mm
06:40 11.8 °C 8.9 °C 1009.7 hPa SW 20.9 km/h 35.4 km/h 82% 1 mm
06:55 11.8 °C 8.6 °C 1009.7 hPa SSW 19.3 km/h 46.7 km/h 81% 1 mm
07:00 11.6 °C 8.7 °C 1009.7 hPa SSW 14.5 km/h 46.7 km/h 82% 1 mm
07:05 11.5 °C 8.7 °C 1009.7 hPa SSW 12.9 km/h 35.4 km/h 83% 1 mm
07:10 11.4 °C 8.6 °C 1009.7 hPa SSW 20.9 km/h 38.6 km/h 83% 1 mm
07:15 11.3 °C 8.7 °C 1009.7 hPa SSW 8 km/h 38.6 km/h 84% 1 mm
07:25 11.1 °C 8.7 °C 1009.7 hPa SSW 9.7 km/h 41.8 km/h 85% 1.3 mm
07:30 11 °C 8.7 °C 1009.4 hPa SSW 9.7 km/h 30.6 km/h 86% 1.5 mm
07:35 10.9 °C 8.7 °C 1009.7 hPa SW 8 km/h 33.8 km/h 86% 1.5 mm
07:45 10.8 °C 8.8 °C 1009.7 hPa SW 12.9 km/h 27.4 km/h 87% 1.8 mm
07:50 10.8 °C 8.7 °C 1009.4 hPa SSW 11.3 km/h 25.7 km/h 87% 1.8 mm
08:00 10.7 °C 8.8 °C 1009.4 hPa SSW 8 km/h 27.4 km/h 88% 2 mm
08:05 10.7 °C 8.8 °C 1009.4 hPa SSW 11.3 km/h 27.4 km/h 88% 2 mm
08:15 10.6 °C 8.7 °C 1009.4 hPa SW 9.7 km/h 25.7 km/h 88% 2.3 mm
08:25 10.4 °C 8.7 °C 1009.4 hPa SSW 6.4 km/h 30.6 km/h 89% 2.5 mm
08:30 10.4 °C 8.7 °C 1009.4 hPa SSW 16.1 km/h 30.6 km/h 89% 3 mm
08:40 10.2 °C 8.5 °C 1009 hPa SW 9.7 km/h 38.6 km/h 89% 3.3 mm
08:45 10.2 °C 8.4 °C 1009 hPa SSW 14.5 km/h 27.4 km/h 89% 3.6 mm
08:55 10.1 °C 8.3 °C 1009 hPa SSW 9.7 km/h 33.8 km/h 89% 3.8 mm
09:05 9.9 °C 8.2 °C 1008.7 hPa SSW 16.1 km/h 35.4 km/h 89% 4.1 mm
09:10 9.8 °C 7.9 °C 1008.7 hPa SSW 17.7 km/h 33.8 km/h 88% 4.3 mm
09:15 9.8 °C 7.9 °C 1008.7 hPa SSW 16.1 km/h 33.8 km/h 88% 4.8 mm
09:20 9.8 °C 7.9 °C 1008.7 hPa SSW 14.5 km/h 29 km/h 88% 4.8 mm
09:25 9.7 °C 8 °C 1008.7 hPa SSW 12.9 km/h 37 km/h 89% 5.3 mm
09:35 9.7 °C 8 °C 1008.4 hPa SSW 12.9 km/h 37 km/h 89% 6.1 mm
09:40 9.8 °C 8.1 °C 1008.7 hPa SSW 14.5 km/h 37 km/h 89% 6.1 mm
09:50 9.8 °C 8.1 °C 1008.4 hPa SSW 14.5 km/h 37 km/h 89% 6.6 mm
09:55 9.8 °C 8.6 °C 1008.4 hPa SSW 12.9 km/h 37 km/h 92% 6.6 mm
10:00 9.8 °C 8.6 °C 1008.4 hPa SSW 11.3 km/h 37 km/h 92% 6.9 mm
10:05 9.8 °C 8.1 °C 1008.4 hPa SSW 12.9 km/h 37 km/h 89% 7.1 mm
10:10 9.8 °C 7.9 °C 1008.4 hPa SSW 14.5 km/h 37 km/h 88% 7.1 mm
10:15 9.7 °C 7.8 °C 1008.7 hPa SSW 19.3 km/h 43.5 km/h 88% 7.4 mm
10:25 9.8 °C 7.9 °C 1008.4 hPa SSW 16.1 km/h 33.8 km/h 88% 7.9 mm
10:30 9.8 °C 8.1 °C 1008.4 hPa SSW 11.3 km/h 33.8 km/h 89% 7.9 mm
10:35 9.8 °C 8.1 °C 1008.4 hPa SW 12.9 km/h 29 km/h 89% 8.1 mm
10:45 9.9 °C 8.2 °C 1008 hPa SSW 14.5 km/h 40.2 km/h 89% 8.4 mm
10:55 10 °C 8.3 °C 1008 hPa SSW 11.3 km/h 30.6 km/h 89% 8.6 mm
11:00 10 °C 8.3 °C 1008 hPa SSW 16.1 km/h 32.2 km/h 89% 9.1 mm
11:05 10 °C 8.3 °C 1008 hPa SSW 16.1 km/h 32.2 km/h 89% 9.4 mm
11:15 10.1 °C 8.4 °C 1008 hPa SSW 11.3 km/h 30.6 km/h 89% 10.2 mm
11:20 10.1 °C 8.4 °C 1008 hPa SSW 11.3 km/h 30.6 km/h 89% 10.4 mm
11:25 10 °C 8.3 °C 1007.7 hPa SSW 17.7 km/h 37 km/h 89% 10.7 mm
11:30 10.1 °C 8.3 °C 1007.7 hPa SSW 12.9 km/h 37 km/h 89% 11.4 mm
11:35 10 °C 8.3 °C 1007.7 hPa SSW 16.1 km/h 30.6 km/h 89% 11.9 mm
11:45 10 °C 8.3 °C 1007.7 hPa SSW 9.7 km/h 30.6 km/h 89% 13 mm
11:50 10 °C 8.4 °C 1007.7 hPa SSW 14.5 km/h 29 km/h 90% 13.2 mm
11:55 10.1 °C 8.5 °C 1007.7 hPa SSW 12.9 km/h 30.6 km/h 90% 13.7 mm
12:05 10.2 °C 8.6 °C 1007.7 hPa SSW 12.9 km/h 30.6 km/h 90% 14.2 mm
12:10 10.3 °C 8.9 °C 1007.7 hPa SSW 9.7 km/h 30.6 km/h 91% 14.2 mm
12:15 10.3 °C 8.9 °C 1007.7 hPa SSW 6.4 km/h 27.4 km/h 91% 14.7 mm
12:25 10.3 °C 8.9 °C 1007.3 hPa SSW 9.7 km/h 29 km/h 91% 15 mm
12:40 10.3 °C 8.9 °C 1007.3 hPa SSW 12.9 km/h 29 km/h 91% 15.7 mm
12:45 10.3 °C 8.9 °C 1007.3 hPa SSW 14.5 km/h 35.4 km/h 91% 16.5 mm
12:50 10.3 °C 8.9 °C 1007.3 hPa SSW 11.3 km/h 35.4 km/h 91% 17 mm
12:55 10.3 °C 8.9 °C 1007.3 hPa SSW 16.1 km/h 35.4 km/h 91% 17.5 mm
13:00 10.3 °C 8.9 °C 1007.3 hPa SSW 12.9 km/h 35.4 km/h 91% 18 mm
13:05 10.3 °C 8.9 °C 1007.3 hPa SSW 9.7 km/h 27.4 km/h 91% 18.5 mm
13:15 10.3 °C 8.9 °C 1007.3 hPa SSW 11.3 km/h 30.6 km/h 91% 19.8 mm
13:25 10.3 °C 8.9 °C 1007.3 hPa SSW 8 km/h 27.4 km/h 91% 20.8 mm
13:35 10.3 °C 8.9 °C 1007.3 hPa SSW 8 km/h 19.3 km/h 91% 21.8 mm
13:40 10.3 °C 9.1 °C 1007.7 hPa SSW 6.4 km/h 17.7 km/h 92% 22.4 mm
13:45 10.3 °C 9.1 °C 1007.7 hPa SSW 8 km/h 24.1 km/h 92% 22.9 mm
13:50 10.3 °C 9.1 °C 1007.7 hPa SSW 1.6 km/h 24.1 km/h 92% 23.4 mm
14:00 10.3 °C 9.1 °C 1007.7 hPa South 4.8 km/h 17.7 km/h 92% 24.4 mm
14:05 10.4 °C 9.2 °C 1007.7 hPa South 4.8 km/h 19.3 km/h 92% 24.9 mm
14:10 10.4 °C 9.2 °C 1007.3 hPa SSW 8 km/h 19.3 km/h 92% 25.4 mm
14:15 10.3 °C 9.1 °C 1007.7 hPa SSW 8 km/h 22.5 km/h 92% 25.9 mm
14:20 10.4 °C 9.2 °C 1007.7 hPa SSW 3.2 km/h 22.5 km/h 92% 26.4 mm
14:25 10.4 °C 9.3 °C 1007.3 hPa SSW 3.2 km/h 20.9 km/h 93% 26.7 mm
14:30 10.4 °C 9.3 °C 1007.3 hPa South 6.4 km/h 20.9 km/h 93% 26.9 mm
14:35 10.4 °C 9.4 °C 1007.3 hPa SSW 3.2 km/h 19.3 km/h 93% 27.4 mm
14:40 10.4 °C 9.4 °C 1007.3 hPa South 4.8 km/h 22.5 km/h 93% 27.9 mm
14:50 10.4 °C 9.4 °C 1007.3 hPa Calm   14.5 km/h 93% 28.4 mm
14:55 10.4 °C 9.4 °C 1007.3 hPa SSW 4.8 km/h 14.5 km/h 93% 29 mm
15:00 10.5 °C 9.4 °C 1007.3 hPa SSW 4.8 km/h 14.5 km/h 93% 29.5 mm
15:10 10.6 °C 9.4 °C 1007 hPa SW 3.2 km/h 17.7 km/h 93% 29.7 mm
15:20 10.6 °C 9.4 °C 1007 hPa SSW 8 km/h 20.9 km/h 93% 30.5 mm
15:25 10.6 °C 9.4 °C 1007 hPa SSW 3.2 km/h 20.9 km/h 93% 30.5 mm
15:30 10.7 °C 9.7 °C 1007 hPa SSW 1.6 km/h 20.9 km/h 94% 31 mm
15:35 10.7 °C 9.8 °C 1007 hPa SSW 1.6 km/h 20.9 km/h 94% 31.2 mm
15:40 10.7 °C 9.8 °C 1007 hPa SSW 3.2 km/h 17.7 km/h 94% 31.5 mm
15:50 10.7 °C 9.8 °C 1007 hPa SW 4.8 km/h 24.1 km/h 94% 32 mm
15:55 10.7 °C 9.8 °C 1007 hPa South 1.6 km/h 16.1 km/h 94% 32.3 mm
16:00 10.8 °C 9.8 °C 1007 hPa SSW 4.8 km/h 17.7 km/h 94% 32.5 mm
16:05 10.8 °C 9.8 °C 1007 hPa SSW 3.2 km/h 17.7 km/h 94% 32.5 mm
16:15 10.8 °C 9.9 °C 1007 hPa SW 3.2 km/h 20.9 km/h 94% 33 mm
16:25 10.8 °C 9.9 °C 1007 hPa SSW 1.6 km/h 19.3 km/h 94% 33.5 mm
16:30 10.9 °C 9.9 °C 1007 hPa SSW 3.2 km/h 19.3 km/h 94% 33.5 mm
16:40 10.9 °C 9.9 °C 1007 hPa SW 1.6 km/h 16.1 km/h 94% 34 mm
16:45 10.9 °C 10 °C 1007 hPa SSW 1.6 km/h 16.1 km/h 94% 34 mm
16:50 11.1 °C 10.3 °C 1007 hPa SSW 3.2 km/h 16.1 km/h 95% 34.3 mm
17:00 11.2 °C 10.4 °C 1006.7 hPa SSW 1.6 km/h 14.5 km/h 95% 34.5 mm
17:05 11.2 °C 10.4 °C 1006.7 hPa South 4.8 km/h 16.1 km/h 95% 34.5 mm
17:15 11.3 °C 10.5 °C 1006.7 hPa SSW 1.6 km/h 19.3 km/h 95% 34.8 mm
17:25 11.3 °C 10.5 °C 1006.7 hPa SSW 3.2 km/h 16.1 km/h 95% 34.8 mm
17:30 11.3 °C 10.6 °C 1006.7 hPa SSW 1.6 km/h 16.1 km/h 95% 34.8 mm
17:35 11.3 °C 10.5 °C 1006.7 hPa SSW 4.8 km/h 19.3 km/h 95% 34.8 mm
17:40 11.3 °C 10.5 °C 1006.3 hPa SW 3.2 km/h 19.3 km/h 95% 34.8 mm
17:50 11.3 °C 10.6 °C 1006.3 hPa SSW 3.2 km/h 17.7 km/h 95% 34.8 mm
17:55 11.3 °C 10.6 °C 1006.3 hPa Calm   17.7 km/h 95% 35.1 mm
18:00 11.3 °C 10.6 °C 1006.7 hPa SSW 3.2 km/h 14.5 km/h 95% 35.1 mm
18:05 11.4 °C 10.6 °C 1006.7 hPa SSW 3.2 km/h 14.5 km/h 95% 35.1 mm
18:10 11.4 °C 10.6 °C 1006.7 hPa SSW 3.2 km/h 14.5 km/h 95% 35.1 mm
18:15 11.4 °C 10.6 °C 1006.3 hPa Calm   14.5 km/h 95% 35.1 mm
18:20 11.4 °C 10.6 °C 1006.3 hPa SSW 3.2 km/h 14.5 km/h 95% 35.1 mm
18:25 11.4 °C 10.7 °C 1006.3 hPa SSW 4.8 km/h 17.7 km/h 95% 35.1 mm
18:30 11.4 °C 10.7 °C 1006.3 hPa Calm   17.7 km/h 95% 35.1 mm
18:40 11.5 °C 10.7 °C 1006.3 hPa Calm   16.1 km/h 95% 35.3 mm
18:45 11.5 °C 10.7 °C 1006.3 hPa South 1.6 km/h 14.5 km/h 95% 35.6 mm
18:55 11.6 °C 10.8 °C 1006.3 hPa SSW 1.6 km/h 14.5 km/h 95% 35.6 mm
19:05 11.6 °C 10.8 °C 1006.3 hPa SSW 1.6 km/h 14.5 km/h 95% 35.6 mm
19:10 11.6 °C 10.8 °C 1006.3 hPa SW 3.2 km/h 16.1 km/h 95% 35.6 mm
19:15 11.6 °C 10.8 °C 1006.3 hPa Calm   16.1 km/h 95% 35.6 mm
19:20 11.6 °C 10.8 °C 1006.3 hPa SW 1.6 km/h 12.9 km/h 95% 35.6 mm
19:25 11.6 °C 10.8 °C 1006.7 hPa SSW 3.2 km/h 16.1 km/h 95% 35.6 mm
19:35 11.6 °C 10.8 °C 1006.7 hPa Calm   20.9 km/h 95% 35.6 mm
19:45 11.7 °C 10.9 °C 1006.3 hPa SSW 1.6 km/h 11.3 km/h 95% 35.6 mm
19:55 11.7 °C 10.9 °C 1006.3 hPa SSW 4.8 km/h 12.9 km/h 95% 35.6 mm
20:00 11.7 °C 10.9 °C 1006.3 hPa Calm   12.9 km/h 95% 35.6 mm
20:05 11.7 °C 10.9 °C 1006.7 hPa Calm   11.3 km/h 95% 35.6 mm
20:10 11.7 °C 10.9 °C 1006.7 hPa Calm   9.7 km/h 95% 35.6 mm
20:15 11.7 °C 10.9 °C 1006.7 hPa South 1.6 km/h 11.3 km/h 95% 35.6 mm
20:20 11.7 °C 10.9 °C 1006.7 hPa SSW 1.6 km/h 11.3 km/h 95% 35.6 mm
20:25 11.7 °C 10.9 °C 1006.7 hPa Calm   11.3 km/h 95% 35.6 mm
20:30 11.7 °C 10.9 °C 1006.7 hPa Calm   11.3 km/h 95% 35.6 mm
20:35 11.8 °C 11 °C 1006.3 hPa SSW 3.2 km/h 11.3 km/h 95% 35.6 mm
20:40 11.8 °C 11 °C 1006.7 hPa SSW 1.6 km/h 11.3 km/h 95% 35.6 mm
20:50 11.8 °C 11 °C 1006.7 hPa SW 3.2 km/h 12.9 km/h 95% 35.6 mm
20:55 11.8 °C 11.1 °C 1007 hPa Calm   12.9 km/h 95% 35.6 mm
21:05 11.8 °C 11.1 °C 1007 hPa Calm   11.3 km/h 95% 35.6 mm
21:10 11.8 °C 11.1 °C 1007 hPa Calm   11.3 km/h 95% 35.6 mm
21:15 11.8 °C 11.2 °C 1007 hPa SSW 3.2 km/h 16.1 km/h 96% 35.6 mm
21:20 11.9 °C 11.3 °C 1007 hPa SSW 1.6 km/h 16.1 km/h 96% 35.6 mm
21:25 11.9 °C 11.3 °C 1007 hPa SSW 3.2 km/h 14.5 km/h 96% 35.6 mm
21:30 11.9 °C 11.3 °C 1007 hPa SSW 3.2 km/h 12.9 km/h 96% 35.6 mm
21:35 11.9 °C 11.3 °C 1007 hPa SSW 1.6 km/h 12.9 km/h 96% 35.6 mm
21:45 11.9 °C 11.3 °C 1007 hPa Calm   12.9 km/h 96% 35.6 mm
21:50 11.9 °C 11.3 °C 1006.7 hPa SSW 1.6 km/h 12.9 km/h 96% 35.6 mm
21:55 12 °C 11.4 °C 1006.7 hPa SSW 3.2 km/h 11.3 km/h 96% 35.6 mm
22:05 12 °C 11.4 °C 1006.7 hPa SSW 1.6 km/h 11.3 km/h 96% 35.6 mm
22:10 12.1 °C 11.4 °C 1006.7 hPa SSW 3.2 km/h 11.3 km/h 96% 35.6 mm
22:15 12.1 °C 11.5 °C 1006.7 hPa Calm   11.3 km/h 96% 35.6 mm
22:25 12.2 °C 11.6 °C 1006.7 hPa Calm   9.7 km/h 96% 35.6 mm
22:30 12.2 °C 11.6 °C 1006.7 hPa SSW 1.6 km/h 11.3 km/h 96% 35.6 mm
22:35 12.2 °C 11.6 °C 1006.7 hPa SSW 3.2 km/h 12.9 km/h 96% 35.6 mm
22:40 12.2 °C 11.6 °C 1006.7 hPa SW 1.6 km/h 12.9 km/h 96% 35.6 mm
22:50 12.3 °C 11.7 °C 1006.7 hPa Calm   8 km/h 96% 35.6 mm
22:55 12.3 °C 11.7 °C 1006.7 hPa SW 1.6 km/h 11.3 km/h 96% 35.6 mm
23:05 12.3 °C 11.7 °C 1007 hPa SW 4.8 km/h 11.3 km/h 96% 35.6 mm
23:10 12.4 °C 11.8 °C 1006.7 hPa SSW 1.6 km/h 12.9 km/h 96% 35.6 mm
23:20 12.3 °C 11.7 °C 1006.3 hPa Calm   9.7 km/h 96% 35.6 mm
23:25 12.3 °C 11.7 °C 1006.7 hPa SSW 1.6 km/h 9.7 km/h 96% 35.6 mm
23:30 12.3 °C 11.7 °C 1006.7 hPa Calm   9.7 km/h 96% 35.6 mm
23:35 12.3 °C 11.7 °C 1006.7 hPa Calm   11.3 km/h 96% 35.6 mm
23:40 12.3 °C 11.7 °C 1006.3 hPa SSW 1.6 km/h 11.3 km/h 96% 35.6 mm
23:45 12.4 °C 11.8 °C 1006.3 hPa SW 1.6 km/h 11.3 km/h 96% 35.6 mm
23:55 12.4 °C 11.8 °C 1006.7 hPa Calm   11.3 km/h 96% 35.6 mm
Westford Weather
Compliments of Weather Underground

 
 
Current Radar Loop:

Copyright © WestfordWeather.net 2007-2014. All rights reserved.